Time;durP1;ratioP1;P1;durP2;ratioP2;P2;SDS_P1;SDS_P2;PMS_P1;PMS_P2;Temp;Humidity;BMP_temperature;BMP_pressure;BME280_temperature;BME280_humidity;BME280_pressure;Samples;Min_cycle;Max_cycle;Signal;HPM_P1;HPM_P2
2023/08/10 00:00:54;;;;;;;4.47;1.08;;;14.90;99.90;;;;;;4991711;28;20036;-68
2023/08/10 00:03:20;;;;;;;3.63;1.48;;;15.00;99.90;;;;;;4992351;28;20034;-68
2023/08/10 00:05:46;;;;;;;3.03;1.27;;;14.90;99.90;;;;;;4991917;28;20124;-68
2023/08/10 00:08:11;;;;;;;2.22;1.00;;;14.90;99.90;;;;;;4992982;28;20041;-68
2023/08/10 00:10:38;;;;;;;3.47;1.13;;;14.90;99.90;;;;;;4991759;28;20429;-68
2023/08/10 00:13:03;;;;;;;2.17;1.23;;;14.80;99.90;;;;;;4990723;28;20041;-68
2023/08/10 00:15:29;;;;;;;2.13;0.90;;;14.80;99.90;;;;;;4992868;28;20386;-68
2023/08/10 00:17:56;;;;;;;2.63;1.20;;;14.90;99.90;;;;;;4988306;28;20109;-68
2023/08/10 00:20:22;;;;;;;1.85;0.93;;;14.80;99.90;;;;;;5000177;28;20034;-67
2023/08/10 00:22:47;;;;;;;4.50;1.17;;;14.80;99.90;;;;;;5007410;28;20022;-68
2023/08/10 00:25:13;;;;;;;2.28;1.17;;;14.80;99.90;;;;;;5011163;28;20032;-68
2023/08/10 00:27:39;;;;;;;2.40;1.02;;;14.70;99.90;;;;;;5011918;28;20058;-68
2023/08/10 00:30:07;;;;;;;1.83;1.00;;;14.70;99.90;;;;;;5012360;28;20085;-68
2023/08/10 00:32:32;;;;;;;2.53;1.10;;;14.70;99.90;;;;;;5011492;28;20029;-68
2023/08/10 00:34:58;;;;;;;6.25;1.83;;;14.60;99.90;;;;;;5012073;28;20026;-68
2023/08/10 00:37:24;;;;;;;2.20;0.98;;;14.50;99.90;;;;;;5011645;28;20390;-68
2023/08/10 00:39:50;;;;;;;2.47;1.15;;;14.40;99.90;;;;;;5011999;28;20065;-68
2023/08/10 00:42:15;;;;;;;2.58;1.40;;;14.30;99.90;;;;;;5011714;28;20029;-68
2023/08/10 00:44:41;;;;;;;1.92;1.05;;;14.20;99.90;;;;;;5011440;28;20115;-68
2023/08/10 00:47:07;;;;;;;3.60;1.25;;;14.20;99.90;;;;;;5011896;28;20551;-68
2023/08/10 00:49:33;;;;;;;7.38;1.20;;;14.00;99.90;;;;;;5010549;28;20477;-68
2023/08/10 00:51:59;;;;;;;1.45;0.90;;;14.00;99.90;;;;;;5011655;28;20512;-68
2023/08/10 00:54:25;;;;;;;2.17;1.45;;;14.00;99.90;;;;;;5011046;28;20025;-68
2023/08/10 00:56:51;;;;;;;2.75;1.15;;;14.00;99.90;;;;;;5010521;28;20045;-68
2023/08/10 00:59:17;;;;;;;1.58;1.20;;;14.00;99.90;;;;;;5011775;28;20042;-68
2023/08/10 01:01:44;;;;;;;2.58;1.25;;;14.00;99.90;;;;;;5011525;28;20026;-68
2023/08/10 01:04:10;;;;;;;5.28;1.35;;;13.90;99.90;;;;;;5004590;28;20038;-68
2023/08/10 01:06:51;;;;;;;1.85;1.08;;;14.00;99.90;;;;;;4983222;28;20041;-68
2023/08/10 01:09:41;;;;;;;2.88;1.45;;;14.00;99.90;;;;;;4994484;28;20080;-68
2023/08/10 01:12:30;;;;;;;2.80;1.23;;;14.00;99.90;;;;;;4994888;28;20073;-68
2023/08/10 01:15:26;;;;;;;1.73;1.05;;;13.90;99.90;;;;;;4985786;28;20146;-68
2023/08/10 01:17:56;;;;;;;2.17;1.17;;;13.70;99.90;;;;;;4967426;28;20047;-68
2023/08/10 01:20:25;;;;;;;2.72;1.00;;;13.70;99.90;;;;;;4970984;28;20038;-69
2023/08/10 01:23:07;;;;;;;1.95;1.10;;;13.60;99.90;;;;;;4970123;28;20471;-68
2023/08/10 01:25:35;;;;;;;2.05;1.05;;;13.60;99.90;;;;;;4985711;28;20030;-67
2023/08/10 01:28:01;;;;;;;3.75;1.30;;;13.60;99.90;;;;;;4971816;28;20724;-67
2023/08/10 01:30:27;;;;;;;2.40;1.02;;;13.60;99.90;;;;;;4970889;28;20470;-67
2023/08/10 01:32:52;;;;;;;2.40;1.17;;;13.60;99.90;;;;;;4969928;28;20034;-67
2023/08/10 01:35:18;;;;;;;3.47;1.88;;;13.60;99.90;;;;;;4971987;28;20027;-67
2023/08/10 01:37:44;;;;;;;1.45;0.90;;;13.70;99.90;;;;;;4970527;28;20070;-67
2023/08/10 01:40:13;;;;;;;5.03;1.33;;;13.70;99.90;;;;;;4973526;28;20495;-68
2023/08/10 01:42:41;;;;;;;2.25;1.25;;;13.70;99.90;;;;;;4990624;28;20117;-67
2023/08/10 01:45:08;;;;;;;2.28;1.40;;;13.70;99.90;;;;;;4989812;28;20049;-67
2023/08/10 01:47:44;;;;;;;1.65;0.90;;;13.70;99.90;;;;;;4990172;28;20044;-68
2023/08/10 01:50:11;;;;;;;5.45;1.67;;;13.70;99.90;;;;;;4991396;28;20041;-68
2023/08/10 01:52:47;;;;;;;2.50;1.40;;;13.70;99.90;;;;;;4990591;28;20033;-67
2023/08/10 01:55:13;;;;;;;2.08;1.05;;;13.80;99.90;;;;;;4990091;28;20471;-67
2023/08/10 01:57:39;;;;;;;2.50;1.27;;;13.80;99.90;;;;;;4990970;28;20023;-68
2023/08/10 02:00:07;;;;;;;4.57;1.23;;;13.70;99.90;;;;;;4991695;28;20132;-67
2023/08/10 02:02:34;;;;;;;2.00;0.93;;;13.70;99.90;;;;;;4990357;28;20057;-68
2023/08/10 02:05:00;;;;;;;3.53;1.23;;;13.60;99.90;;;;;;4990006;28;20038;-67
2023/08/10 02:07:25;;;;;;;2.95;1.48;;;13.60;99.90;;;;;;4991069;28;20042;-68
2023/08/10 02:09:51;;;;;;;1.48;0.93;;;13.60;99.90;;;;;;4990940;28;20038;-67
2023/08/10 02:12:17;;;;;;;2.40;1.00;;;13.60;99.90;;;;;;4990643;28;20478;-67
2023/08/10 02:14:43;;;;;;;2.40;1.02;;;13.60;99.90;;;;;;4985977;28;20528;-67
2023/08/10 02:17:08;;;;;;;2.22;0.73;;;13.70;99.90;;;;;;4971504;28;20472;-67
2023/08/10 02:19:34;;;;;;;2.40;1.45;;;13.70;99.90;;;;;;4973197;28;20042;-68
2023/08/10 02:22:00;;;;;;;2.13;1.10;;;13.60;99.90;;;;;;4973883;28;20039;-67
2023/08/10 02:24:25;;;;;;;1.80;1.10;;;13.50;99.90;;;;;;4974745;28;20035;-67
2023/08/10 02:26:51;;;;;;;3.33;1.48;;;13.50;99.90;;;;;;4975295;28;20121;-68
2023/08/10 02:29:17;;;;;;;4.82;1.35;;;13.40;99.90;;;;;;4975319;28;20027;-68
2023/08/10 02:31:43;;;;;;;3.20;1.40;;;13.30;99.90;;;;;;4975215;28;20035;-67
2023/08/10 02:34:09;;;;;;;3.47;1.52;;;13.30;99.90;;;;;;4974585;28;20479;-68
2023/08/10 02:36:35;;;;;;;2.85;1.63;;;13.40;99.90;;;;;;4977958;28;20053;-68
2023/08/10 02:39:04;;;;;;;2.20;1.10;;;13.20;99.90;;;;;;5002064;28;20046;-68
2023/08/10 02:41:30;;;;;;;3.38;1.23;;;13.10;99.90;;;;;;5014393;28;20033;-67
2023/08/10 02:43:56;;;;;;;1.63;1.00;;;13.20;99.90;;;;;;5013120;28;20036;-67
2023/08/10 02:46:21;;;;;;;4.43;1.35;;;13.10;99.90;;;;;;5010077;28;20048;-67
2023/08/10 02:48:47;;;;;;;1.60;1.00;;;13.20;99.90;;;;;;4997504;28;20436;-68
2023/08/10 02:51:13;;;;;;;3.00;1.13;;;13.10;99.90;;;;;;5003855;28;20101;-67
2023/08/10 02:53:39;;;;;;;1.95;1.00;;;13.20;99.90;;;;;;5013243;28;20121;-67
2023/08/10 02:56:05;;;;;;;2.50;1.10;;;13.20;99.90;;;;;;5012888;28;20065;-67
2023/08/10 02:58:33;;;;;;;2.38;1.33;;;13.30;99.90;;;;;;5013643;28;20030;-68
2023/08/10 03:00:59;;;;;;;2.50;1.25;;;13.20;99.90;;;;;;5012531;28;20088;-67
2023/08/10 03:03:25;;;;;;;3.50;1.70;;;13.20;99.90;;;;;;4996270;28;20026;-67
2023/08/10 03:05:51;;;;;;;2.55;1.15;;;13.20;99.90;;;;;;5002173;28;20112;-67
2023/08/10 03:08:17;;;;;;;6.03;1.23;;;13.00;99.90;;;;;;4995425;28;20109;-67
2023/08/10 03:10:43;;;;;;;2.53;1.30;;;13.00;99.90;;;;;;4990983;28;20031;-67
2023/08/10 03:13:08;;;;;;;5.43;1.17;;;13.00;99.90;;;;;;4973566;28;20031;-68
2023/08/10 03:15:34;;;;;;;4.70;1.45;;;13.20;99.90;;;;;;4986080;28;20076;-68
2023/08/10 03:18:00;;;;;;;4.95;1.60;;;13.20;99.90;;;;;;4993547;28;20034;-67
2023/08/10 03:20:26;;;;;;;1.90;1.30;;;13.30;99.90;;;;;;4980894;28;20431;-67
2023/08/10 03:22:51;;;;;;;1.98;1.10;;;13.30;99.90;;;;;;4972065;28;20035;-68
2023/08/10 03:25:17;;;;;;;1.92;1.20;;;13.30;99.90;;;;;;4974013;28;20172;-67
2023/08/10 03:27:43;;;;;;;0.93;0.80;;;13.10;99.90;;;;;;4974338;28;20149;-67
2023/08/10 03:30:10;;;;;;;2.75;1.25;;;13.00;99.90;;;;;;4992066;28;20038;-68
2023/08/10 03:32:40;;;;;;;1.95;1.15;;;12.90;99.90;;;;;;4992900;28;20037;-67
2023/08/10 03:35:06;;;;;;;2.42;1.20;;;12.90;99.90;;;;;;4975602;28;20030;-67
2023/08/10 03:37:32;;;;;;;1.35;1.02;;;13.00;99.90;;;;;;4991626;28;20502;-67
2023/08/10 03:39:58;;;;;;;3.20;1.30;;;13.00;99.90;;;;;;4991988;28;20030;-67
2023/08/10 03:42:24;;;;;;;7.47;1.42;;;13.10;99.90;;;;;;4992612;28;20034;-67
2023/08/10 03:44:50;;;;;;;2.08;1.52;;;13.10;99.90;;;;;;4993112;28;20042;-67
2023/08/10 03:47:16;;;;;;;2.75;1.10;;;13.20;99.90;;;;;;4993019;28;20035;-68
2023/08/10 03:49:41;;;;;;;3.30;1.20;;;13.20;99.90;;;;;;4992764;28;20034;-67
2023/08/10 03:52:07;;;;;;;2.10;1.50;;;13.20;99.90;;;;;;4993076;28;20089;-68
2023/08/10 03:54:33;;;;;;;3.22;1.33;;;13.30;99.90;;;;;;4992242;28;20054;-68
2023/08/10 03:56:59;;;;;;;2.95;1.35;;;13.30;99.90;;;;;;4993004;28;20811;-67
2023/08/10 03:59:24;;;;;;;2.20;1.58;;;13.40;99.90;;;;;;4992957;28;20060;-68
2023/08/10 04:01:50;;;;;;;2.50;1.58;;;13.40;99.90;;;;;;4992587;28;20030;-67
2023/08/10 04:04:16;;;;;;;3.40;1.50;;;13.40;99.90;;;;;;4991908;28;20034;-68
2023/08/10 04:06:42;;;;;;;2.60;1.17;;;13.40;99.90;;;;;;4992591;28;20397;-68
2023/08/10 04:09:09;;;;;;;4.30;2.13;;;13.40;99.90;;;;;;4992434;28;20073;-67
2023/08/10 04:11:35;;;;;;;3.55;1.88;;;13.30;99.90;;;;;;4980394;28;20026;-67
2023/08/10 04:14:01;;;;;;;4.50;1.10;;;13.40;99.90;;;;;;4971313;28;20038;-68
2023/08/10 04:16:26;;;;;;;2.58;1.30;;;13.30;99.90;;;;;;4992110;28;20019;-68
2023/08/10 04:18:52;;;;;;;2.45;1.30;;;13.40;99.90;;;;;;4992550;28;20479;-68
2023/08/10 04:21:18;;;;;;;2.47;1.40;;;13.40;99.90;;;;;;4992506;28;20065;-68
2023/08/10 04:23:43;;;;;;;2.22;1.20;;;13.30;99.90;;;;;;4991605;28;20053;-68
2023/08/10 04:26:10;;;;;;;2.95;1.85;;;13.30;99.90;;;;;;4992385;28;20034;-68
2023/08/10 04:28:36;;;;;;;2.17;1.35;;;13.30;99.90;;;;;;4992040;28;20529;-68
2023/08/10 04:31:01;;;;;;;2.63;1.15;;;13.10;99.90;;;;;;4992233;28;20031;-67
2023/08/10 04:33:27;;;;;;;4.05;1.48;;;13.20;99.90;;;;;;4991246;28;20391;-67
2023/08/10 04:35:53;;;;;;;4.75;1.55;;;13.30;99.90;;;;;;4990779;28;20023;-68
2023/08/10 04:38:19;;;;;;;3.28;1.63;;;13.40;99.90;;;;;;5011660;23;20048;-69
2023/08/10 04:40:44;;;;;;;2.08;1.58;;;13.50;99.90;;;;;;5020550;28;20069;-70
2023/08/10 04:43:10;;;;;;;2.88;1.50;;;13.60;99.90;;;;;;5010582;28;20508;-70
2023/08/10 04:45:36;;;;;;;2.60;1.60;;;13.60;99.90;;;;;;5011459;28;20507;-70
2023/08/10 04:48:01;;;;;;;3.10;1.60;;;13.70;99.90;;;;;;5014491;28;20034;-70
2023/08/10 04:50:29;;;;;;;2.90;1.48;;;13.70;99.90;;;;;;5017839;28;20072;-70
2023/08/10 04:52:54;;;;;;;1.77;1.10;;;13.80;99.90;;;;;;5030741;28;20021;-69
2023/08/10 04:55:20;;;;;;;4.65;1.58;;;13.80;99.90;;;;;;5030951;28;20140;-75
2023/08/10 04:57:46;;;;;;;2.90;1.25;;;13.80;99.90;;;;;;5009199;28;20021;-73
2023/08/10 05:00:15;;;;;;;2.97;1.40;;;13.90;99.90;;;;;;5030877;28;20160;-76
2023/08/10 05:02:41;;;;;;;4.72;2.33;;;14.00;99.90;;;;;;5030118;28;20037;-75
2023/08/10 05:05:11;;;;;;;3.95;1.63;;;14.00;99.90;;;;;;5008719;28;20038;-72
2023/08/10 05:07:37;;;;;;;2.08;1.10;;;14.10;99.90;;;;;;5030586;28;20106;-73
2023/08/10 05:10:08;;;;;;;2.38;1.17;;;14.10;99.90;;;;;;5027589;28;20585;-73
2023/08/10 05:12:37;;;;;;;9.25;2.00;;;14.20;99.90;;;;;;5010498;28;20096;-73
2023/08/10 05:15:04;;;;;;;3.53;1.48;;;14.30;99.90;;;;;;5011073;28;20034;-73
2023/08/10 05:17:30;;;;;;;3.42;1.48;;;14.50;99.90;;;;;;5006013;28;20147;-74
2023/08/10 05:19:56;;;;;;;2.47;1.40;;;14.50;99.90;;;;;;5030364;28;20465;-78
2023/08/10 05:22:23;;;;;;;3.83;1.65;;;14.60;99.90;;;;;;5029922;28;20044;-74
2023/08/10 05:24:49;;;;;;;4.00;1.27;;;14.60;99.90;;;;;;5012937;28;20055;-73
2023/08/10 05:27:15;;;;;;;4.47;1.90;;;14.70;99.90;;;;;;5041857;28;20274;-74
2023/08/10 05:29:40;;;;;;;2.70;1.30;;;14.60;99.90;;;;;;5050741;28;20044;-73
2023/08/10 05:32:06;;;;;;;2.50;1.25;;;14.60;99.90;;;;;;5050600;28;20039;-70
2023/08/10 05:34:32;;;;;;;1.98;1.30;;;14.70;99.90;;;;;;5049397;28;20037;-75
2023/08/10 05:36:58;;;;;;;3.97;1.42;;;14.70;99.90;;;;;;5050613;28;20025;-74
2023/08/10 05:39:24;;;;;;;3.35;1.65;;;14.80;99.90;;;;;;5050286;28;20043;-75
2023/08/10 05:41:50;;;;;;;5.25;1.40;;;14.80;99.90;;;;;;5050441;28;20029;-73
2023/08/10 05:44:15;;;;;;;2.40;1.23;;;14.90;99.90;;;;;;5049779;28;20659;-73
2023/08/10 05:46:41;;;;;;;2.92;1.80;;;15.10;99.90;;;;;;5050435;28;20476;-74
2023/08/10 05:49:07;;;;;;;1.88;1.10;;;15.20;99.90;;;;;;5050463;28;20416;-75
2023/08/10 05:51:33;;;;;;;2.83;1.40;;;15.20;99.90;;;;;;5050340;28;20032;-74
2023/08/10 05:53:58;;;;;;;2.70;1.58;;;15.10;99.90;;;;;;5034148;28;20029;-73
2023/08/10 05:56:25;;;;;;;2.85;1.40;;;15.10;99.90;;;;;;5041849;28;20021;-75
2023/08/10 05:58:51;;;;;;;2.20;1.20;;;15.20;99.90;;;;;;5044266;28;20029;-76
2023/08/10 06:01:17;;;;;;;4.00;1.50;;;15.40;99.90;;;;;;5034459;28;20033;-76
2023/08/10 06:03:43;;;;;;;2.40;1.58;;;15.40;99.90;;;;;;5033480;28;20436;-77
2023/08/10 06:06:09;;;;;;;2.28;1.40;;;15.60;99.90;;;;;;5034142;28;20030;-75
2023/08/10 06:08:35;;;;;;;3.15;1.23;;;15.60;99.90;;;;;;5034370;28;20584;-79
2023/08/10 06:11:02;;;;;;;1.92;1.40;;;15.80;99.90;;;;;;5013375;28;20030;-74
2023/08/10 06:13:28;;;;;;;2.63;1.52;;;15.80;99.90;;;;;;4996450;28;20540;-80
2023/08/10 06:15:53;;;;;;;1.92;1.08;;;15.60;99.90;;;;;;5000131;28;20112;-80
2023/08/10 06:18:19;;;;;;;2.40;1.38;;;15.70;99.90;;;;;;5015182;28;20033;-78
2023/08/10 06:20:45;;;;;;;3.30;1.63;;;15.90;99.90;;;;;;4997440;28;20153;-87
2023/08/10 06:23:12;;;;;;;7.10;1.77;;;15.80;99.90;;;;;;5013518;28;20034;-88
2023/08/10 06:25:39;;;;;;;6.25;1.52;;;16.00;99.90;;;;;;5013798;28;20560;-77
2023/08/10 06:28:08;;;;;;;4.60;1.30;;;15.80;99.90;;;;;;5032880;28;20086;-81
2023/08/10 06:30:34;;;;;;;5.15;1.38;;;16.00;99.90;;;;;;5016947;28;20038;-79
2023/08/10 06:33:01;;;;;;;2.75;1.40;;;16.20;99.90;;;;;;5015852;28;20040;-84
2023/08/10 06:35:27;;;;;;;3.03;1.88;;;16.20;99.90;;;;;;5014350;28;20025;-85
2023/08/10 06:37:53;;;;;;;2.33;1.40;;;16.40;99.90;;;;;;5033730;28;20025;-84
2023/08/10 06:40:20;;;;;;;1.95;1.33;;;16.50;99.90;;;;;;5017055;28;20038;-81
2023/08/10 06:42:46;;;;;;;4.45;1.70;;;16.70;99.90;;;;;;5016184;28;20041;-84
2023/08/10 06:45:12;;;;;;;4.75;1.92;;;16.80;99.90;;;;;;5024817;28;20124;-86
2023/08/10 06:47:38;;;;;;;4.00;1.85;;;16.90;99.90;;;;;;5013257;28;20038;-85
2023/08/10 06:50:05;;;;;;;3.72;1.77;;;17.00;99.90;;;;;;5014568;28;20037;-84
2023/08/10 06:52:31;;;;;;;4.60;1.30;;;17.00;99.90;;;;;;4997211;28;20018;-87
2023/08/10 06:54:57;;;;;;;2.78;1.30;;;16.90;99.90;;;;;;4996442;28;20038;-85
2023/08/10 06:57:22;;;;;;;5.32;1.60;;;16.70;99.90;;;;;;5007262;28;20116;-84
2023/08/10 06:59:48;;;;;;;4.30;1.98;;;16.80;99.90;;;;;;5015254;28;20393;-84
2023/08/10 07:02:16;;;;;;;2.30;1.75;;;16.90;99.90;;;;;;5033796;28;20029;-85
2023/08/10 07:04:44;;;;;;;4.47;1.35;;;16.90;99.90;;;;;;5032839;28;20055;-84
2023/08/10 07:07:10;;;;;;;4.95;1.77;;;17.00;99.90;;;;;;5033493;28;20442;-85
2023/08/10 07:09:36;;;;;;;5.32;2.13;;;16.90;99.90;;;;;;5029204;28;20081;-86
2023/08/10 07:12:04;;;;;;;4.15;1.27;;;17.00;99.90;;;;;;5029068;28;20030;-86
2023/08/10 07:14:30;;;;;;;5.40;2.15;;;17.20;99.90;;;;;;5012113;28;20029;-85
2023/08/10 07:16:57;;;;;;;6.10;2.10;;;17.30;99.90;;;;;;5015585;28;20398;-87
2023/08/10 07:19:22;;;;;;;3.30;1.83;;;16.90;99.90;;;;;;5032810;28;20049;-84
2023/08/10 07:21:48;;;;;;;2.72;1.75;;;16.90;99.90;;;;;;5021642;28;20481;-88
2023/08/10 07:24:14;;;;;;;3.03;1.88;;;17.00;99.90;;;;;;5006004;28;20025;-86
2023/08/10 07:26:40;;;;;;;3.45;1.85;;;17.10;99.90;;;;;;5032577;28;20120;-86
2023/08/10 07:29:05;;;;;;;3.17;1.65;;;17.30;99.90;;;;;;5010838;28;20121;-87
2023/08/10 07:31:31;;;;;;;2.78;1.50;;;17.10;99.90;;;;;;5029285;28;20120;-87
2023/08/10 07:34:01;;;;;;;4.88;2.03;;;17.10;99.90;;;;;;5003302;28;20052;-86
2023/08/10 07:36:27;;;;;;;9.05;2.70;;;17.30;99.90;;;;;;5012269;28;20025;-90
2023/08/10 07:38:56;;;;;;;7.10;3.20;;;17.40;99.90;;;;;;5729551;22;20024;-86
2023/08/10 07:41:23;;;;;;;4.75;1.83;;;17.50;99.90;;;;;;5041415;28;20043;-88
2023/08/10 07:43:50;;;;;;;6.80;2.42;;;17.50;99.90;;;;;;5056342;28;20487;-85
2023/08/10 07:46:16;;;;;;;10.30;2.40;;;17.50;99.90;;;;;;5052822;28;20033;-86
2023/08/10 07:48:42;;;;;;;5.80;2.33;;;17.60;99.90;;;;;;5050328;28;20115;-74
2023/08/10 07:51:07;;;;;;;4.22;1.88;;;17.70;99.90;;;;;;5053672;28;20745;-85
2023/08/10 07:53:36;;;;;;;4.32;1.80;;;17.80;99.90;;;;;;5053576;28;20092;-81
2023/08/10 07:56:02;;;;;;;5.82;2.00;;;17.80;99.90;;;;;;5052211;28;20036;-83
2023/08/10 07:58:28;;;;;;;3.20;1.60;;;17.80;99.90;;;;;;5053893;28;20033;-86
2023/08/10 08:00:53;;;;;;;16.05;3.15;;;17.80;99.90;;;;;;5060816;28;20396;-85
2023/08/10 08:03:21;;;;;;;3.00;1.60;;;18.00;99.90;;;;;;5061052;28;20032;-87
2023/08/10 08:05:46;;;;;;;3.28;1.65;;;18.10;99.90;;;;;;5052575;28;20029;-81
2023/08/10 08:08:12;;;;;;;4.35;1.77;;;18.20;99.90;;;;;;5051758;28;20033;-81
2023/08/10 08:10:38;;;;;;;3.17;1.88;;;18.20;99.90;;;;;;5047530;28;20037;-82
2023/08/10 08:13:06;;;;;;;5.97;2.72;;;18.20;99.90;;;;;;5029785;28;20385;-89
2023/08/10 08:15:33;;;;;;;2.97;2.17;;;18.40;99.90;;;;;;5030729;28;20374;-81
2023/08/10 08:18:52;;;;;;;4.60;1.80;;;18.50;99.90;;;;;;5029242;28;20403;-78
2023/08/10 08:21:22;;;;;;;3.50;1.77;;;18.60;99.90;;;;;;5038260;28;20044;-83
2023/08/10 08:23:49;;;;;;;5.63;2.08;;;18.60;99.90;;;;;;5023376;28;20096;-84
2023/08/10 08:26:17;;;;;;;4.82;1.98;;;18.60;99.90;;;;;;5032887;28;20457;-75
2023/08/10 08:28:44;;;;;;;2.28;1.50;;;18.70;99.90;;;;;;5042302;28;20059;-84
2023/08/10 08:31:10;;;;;;;8.32;2.63;;;18.70;99.90;;;;;;5042087;28;20025;-81
2023/08/10 08:33:36;;;;;;;3.35;1.92;;;18.70;99.90;;;;;;5034459;28;20075;-80
2023/08/10 08:36:03;;;;;;;5.15;2.15;;;18.80;99.90;;;;;;5042070;28;20025;-83
2023/08/10 08:38:29;;;;;;;3.35;1.77;;;18.90;99.90;;;;;;5043100;28;20032;-83
2023/08/10 08:40:56;;;;;;;3.75;1.90;;;19.10;99.90;;;;;;5050143;28;20111;-82
2023/08/10 08:43:22;;;;;;;1.40;0.80;;;19.10;99.90;;;;;;5049395;28;20025;-83
2023/08/10 08:45:49;;;;;;;3.17;1.85;;;19.30;99.90;;;;;;5050496;28;20116;-82
2023/08/10 08:48:16;;;;;;;4.05;1.75;;;19.40;99.90;;;;;;5049929;28;20123;-82
2023/08/10 08:50:47;;;;;;;2.88;1.50;;;19.40;99.90;;;;;;5051678;28;20113;-84
2023/08/10 08:53:13;;;;;;;;;;;19.40;99.90;;;;;;5049374;28;20428;-83
2023/08/10 08:55:40;;;;;;;1.60;0.82;;;19.60;99.90;;;;;;5050266;28;20022;-84
2023/08/10 08:58:06;;;;;;;1.17;0.70;;;19.70;99.90;;;;;;5050816;28;20075;-85
2023/08/10 09:00:33;;;;;;;2.90;1.27;;;19.80;99.90;;;;;;5049758;28;20433;-83
2023/08/10 09:03:00;;;;;;;2.15;1.15;;;20.00;99.90;;;;;;5049978;28;20037;-83
2023/08/10 09:05:27;;;;;;;2.42;1.10;;;20.10;99.90;;;;;;5050057;28;20056;-85
2023/08/10 09:07:53;;;;;;;2.20;1.30;;;20.00;99.90;;;;;;5036813;28;20037;-84
2023/08/10 09:10:20;;;;;;;2.42;1.23;;;20.20;99.90;;;;;;5013849;28;20512;-85
2023/08/10 09:12:47;;;;;;;3.25;1.08;;;20.30;99.90;;;;;;5030446;28;20036;-85
2023/08/10 09:15:18;;;;;;;2.20;1.00;;;20.40;99.90;;;;;;5048507;28;20112;-82
2023/08/10 09:17:48;;;;;;;2.10;0.95;;;20.50;99.90;;;;;;5010147;28;20041;-81
2023/08/10 09:20:22;;;;;;;3.28;1.02;;;20.60;99.90;;;;;;5021963;28;20476;-84
2023/08/10 09:22:52;;;;;;;2.53;1.00;;;20.80;99.90;;;;;;5050171;28;20040;-84
2023/08/10 09:25:19;;;;;;;2.45;1.20;;;20.90;99.90;;;;;;5049767;28;20025;-83
2023/08/10 09:27:47;;;;;;;2.10;1.00;;;21.00;99.90;;;;;;5048919;28;20035;-85
2023/08/10 09:30:13;;;;;;;1.67;1.05;;;21.10;99.90;;;;;;5030114;28;20045;-77
2023/08/10 09:32:40;;;;;;;1.95;0.90;;;21.00;99.90;;;;;;5022905;28;20037;-69
2023/08/10 09:35:15;;;;;;;2.20;0.90;;;21.10;99.40;;;;;;5021147;28;20067;-69
2023/08/10 09:37:42;;;;;;;2.25;1.13;;;21.30;99.80;;;;;;5040133;28;20029;-68
2023/08/10 09:40:11;;;;;;;1.48;0.73;;;21.40;98.30;;;;;;5050259;28;20033;-66
2023/08/10 09:42:39;;;;;;;1.10;0.75;;;21.40;98.30;;;;;;5048951;28;20148;-67
2023/08/10 09:45:10;;;;;;;2.35;1.00;;;21.50;99.40;;;;;;5050131;28;20033;-67
2023/08/10 09:47:42;;;;;;;1.23;0.70;;;21.70;98.40;;;;;;5050218;28;20056;-68
2023/08/10 09:50:15;;;;;;;2.33;0.98;;;21.60;98.30;;;;;;5032260;28;20392;-69
2023/08/10 09:52:43;;;;;;;2.13;0.95;;;21.70;99.90;;;;;;5049487;28;20488;-71
2023/08/10 09:55:10;;;;;;;2.60;1.13;;;21.90;99.70;;;;;;5048971;28;20127;-69
2023/08/10 09:57:44;;;;;;;4.13;1.15;;;22.00;99.90;;;;;;5049776;28;20036;-69
2023/08/10 10:00:18;;;;;;;1.20;0.80;;;22.00;99.40;;;;;;5049863;28;20055;-70
2023/08/10 10:02:45;;;;;;;3.08;1.10;;;22.30;99.90;;;;;;5048192;28;20079;-65
2023/08/10 10:05:11;;;;;;;1.73;0.90;;;22.50;99.20;;;;;;5049772;28;20032;-75
2023/08/10 10:07:38;;;;;;;1.30;0.65;;;22.50;98.30;;;;;;5048361;28;20020;-75
2023/08/10 10:10:09;;;;;;;5.15;1.15;;;22.70;98.90;;;;;;5048590;28;20044;-80
2023/08/10 10:12:35;;;;;;;;;;;22.70;97.40;;;;;;5008686;28;20032;-76
2023/08/10 10:15:02;;;;;;;1.17;0.68;;;22.90;95.50;;;;;;5010407;28;20018;-74
2023/08/10 10:17:28;;;;;;;1.60;0.90;;;23.00;95.10;;;;;;5025108;28;20033;-79
2023/08/10 10:19:54;;;;;;;1.50;0.85;;;22.80;92.90;;;;;;5010375;28;20034;-77
2023/08/10 10:22:20;;;;;;;2.30;0.93;;;23.00;94.40;;;;;;5024270;28;20026;-79
2023/08/10 10:24:49;;;;;;;1.95;0.90;;;23.10;94.50;;;;;;5025596;28;20025;-74
2023/08/10 10:27:14;;;;;;;2.28;0.60;;;23.30;93.10;;;;;;5017172;28;20029;-76
2023/08/10 10:29:58;;;;;;;1.50;0.90;;;23.40;92.50;;;;;;5032544;28;20449;-74
2023/08/10 10:32:24;;;;;;;2.00;0.88;;;23.10;93.60;;;;;;5025815;28;20029;-74
2023/08/10 10:34:52;;;;;;;5.88;0.88;;;23.20;95.40;;;;;;5032516;28;20385;-72
2023/08/10 10:40:18;;;;;;;3.45;1.67;;;23.60;93.80;;;;;;5037996;28;20052;-72
2023/08/10 10:43:11;;;;;;;1.02;0.70;;;23.50;93.60;;;;;;5056206;28;20026;-71
2023/08/10 10:45:39;;;;;;;1.67;0.80;;;23.40;94.60;;;;;;5016125;28;20034;-71
2023/08/10 10:48:06;;;;;;;0.95;0.60;;;23.70;95.30;;;;;;5026997;28;20749;-71
2023/08/10 10:50:33;;;;;;;1.58;0.77;;;23.60;95.10;;;;;;5012382;28;20034;-71
2023/08/10 10:53:15;;;;;;;1.02;0.60;;;23.70;95.30;;;;;;5011838;28;20731;-72
2023/08/10 10:55:46;;;;;;;3.30;1.33;;;24.10;95.30;;;;;;5022521;28;20039;-72
2023/08/10 10:58:15;;;;;;;2.78;0.88;;;24.10;91.70;;;;;;5020543;28;20517;-73
2023/08/10 11:00:43;;;;;;;1.33;0.95;;;24.00;91.70;;;;;;5011828;28;20040;-71
2023/08/10 11:03:11;;;;;;;4.60;0.60;;;24.20;93.10;;;;;;4995433;28;20026;-73
2023/08/10 11:05:37;;;;;;;4.35;0.88;;;24.20;86.20;;;;;;5008509;28;20018;-73
2023/08/10 11:08:06;;;;;;;0.95;0.60;;;24.30;86.30;;;;;;5025266;28;20037;-72
2023/08/10 11:10:37;;;;;;;1.90;0.70;;;24.20;90.10;;;;;;5006519;28;20460;-72
2023/08/10 11:13:08;;;;;;;0.60;0.50;;;24.60;86.10;;;;;;5011288;28;20037;-73
2023/08/10 11:15:36;;;;;;;1.45;0.90;;;24.60;84.30;;;;;;4995392;28;20042;-73
2023/08/10 11:18:14;;;;;;;0.80;0.63;;;24.90;87.90;;;;;;5011789;28;20073;-71
2023/08/10 11:20:51;;;;;;;6.13;0.77;;;25.20;90.20;;;;;;5011812;28;20033;-71
2023/08/10 11:23:17;;;;;;;4.38;1.17;;;24.80;84.20;;;;;;5011790;28;20026;-70
2023/08/10 11:25:50;;;;;;;4.90;0.70;;;24.70;86.90;;;;;;5008494;28;20378;-67
2023/08/10 11:28:21;;;;;;;1.92;0.80;;;24.80;85.20;;;;;;5030724;28;20021;-67
2023/08/10 11:30:48;;;;;;;4.18;0.85;;;24.90;84.90;;;;;;5032350;28;20025;-68
2023/08/10 11:33:15;;;;;;;0.75;0.52;;;24.40;79.10;;;;;;5031772;28;20029;-67
2023/08/10 11:35:50;;;;;;;2.20;0.80;;;24.10;78.50;;;;;;5032341;28;20076;-69
2023/08/10 11:38:16;;;;;;;1.67;0.93;;;24.30;81.20;;;;;;5014577;28;20394;-68
2023/08/10 11:40:42;;;;;;;1.75;0.80;;;24.90;81.20;;;;;;5031128;28;20535;-68
2023/08/10 11:43:12;;;;;;;1.17;0.50;;;25.30;78.10;;;;;;5031512;28;20025;-68
2023/08/10 11:45:39;;;;;;;1.30;0.98;;;25.20;79.50;;;;;;5030501;28;20029;-68
2023/08/10 11:48:11;;;;;;;0.85;0.63;;;25.50;83.40;;;;;;5031144;28;20044;-69
2023/08/10 11:50:38;;;;;;;0.93;0.70;;;25.80;83.50;;;;;;5030321;28;20139;-69
2023/08/10 11:53:20;;;;;;;1.38;1.00;;;26.10;82.30;;;;;;5030005;28;20033;-69
2023/08/10 11:55:53;;;;;;;1.42;0.88;;;25.40;74.00;;;;;;5030681;28;20061;-67
2023/08/10 11:58:19;;;;;;;4.00;1.08;;;25.40;79.20;;;;;;4992535;28;20054;-73
2023/08/10 12:00:54;;;;;;;1.98;0.50;;;25.90;74.60;;;;;;4991199;28;20034;-73
2023/08/10 12:03:27;;;;;;;1.75;0.80;;;26.20;76.70;;;;;;4991850;28;20077;-72
2023/08/10 12:06:00;;;;;;;4.10;1.10;;;26.40;73.50;;;;;;4991179;28;20108;-76
2023/08/10 12:08:35;;;;;;;0.93;0.63;;;26.50;73.60;;;;;;4992302;28;20034;-73
2023/08/10 12:11:06;;;;;;;1.15;0.68;;;26.70;72.60;;;;;;5010641;28;20026;-73
2023/08/10 12:13:43;;;;;;;2.40;0.68;;;26.60;69.10;;;;;;5021716;28;20021;-73
2023/08/10 12:16:09;;;;;;;1.55;0.68;;;26.80;74.50;;;;;;5029327;28;20128;-74
2023/08/10 12:18:35;;;;;;;2.58;0.80;;;27.20;73.70;;;;;;5030071;28;20494;-74
2023/08/10 12:21:00;;;;;;;2.47;0.88;;;26.90;71.80;;;;;;5031334;28;20029;-74
2023/08/10 12:23:26;;;;;;;5.38;1.17;;;27.50;70.60;;;;;;5029596;28;20626;-74
2023/08/10 12:25:52;;;;;;;1.45;0.82;;;26.60;69.60;;;;;;5030562;28;20064;-74
2023/08/10 12:28:19;;;;;;;2.10;0.70;;;26.80;70.20;;;;;;5029754;28;20473;-74
2023/08/10 12:30:45;;;;;;;1.30;0.85;;;27.40;70.20;;;;;;5030312;28;20025;-73
2023/08/10 12:33:12;;;;;;;2.45;0.90;;;27.10;69.40;;;;;;5029411;28;20026;-74
2023/08/10 12:35:39;;;;;;;1.88;0.82;;;27.20;69.30;;;;;;5024123;28;20033;-72
2023/08/10 12:38:06;;;;;;;1.65;0.90;;;27.40;67.10;;;;;;5014912;28;20041;-71
2023/08/10 12:40:33;;;;;;;1.98;0.80;;;27.80;66.60;;;;;;5021631;28;20036;-74
2023/08/10 12:42:59;;;;;;;4.28;0.90;;;28.00;69.50;;;;;;5040705;28;20033;-74
2023/08/10 12:45:26;;;;;;;5.10;0.90;;;27.40;66.60;;;;;;5009562;28;20036;-74
2023/08/10 12:47:54;;;;;;;0.98;0.50;;;27.00;68.80;;;;;;5021681;28;20256;-73
2023/08/10 12:50:21;;;;;;;1.35;0.70;;;27.50;67.90;;;;;;4996679;28;20040;-73
2023/08/10 12:52:48;;;;;;;2.33;0.70;;;27.40;65.40;;;;;;5013744;28;20089;-76